createdAt,value
2023-05-14T00:01:17.835Z,8.50
2023-05-14T00:03:48.368Z,7.53
2023-05-14T00:06:18.675Z,7.63
2023-05-14T00:08:49.172Z,8.23
2023-05-14T00:11:19.476Z,7.10
2023-05-14T00:13:50.006Z,7.57
2023-05-14T00:16:20.455Z,7.97
2023-05-14T00:18:51.135Z,7.70
2023-05-14T00:21:22.159Z,6.38
2023-05-14T00:23:52.557Z,6.72
2023-05-14T00:26:23.845Z,6.53
2023-05-14T00:28:54.158Z,5.90
2023-05-14T00:31:24.810Z,6.40
2023-05-14T00:33:54.897Z,6.27
2023-05-14T00:36:25.595Z,5.53
2023-05-14T00:38:56.185Z,6.00
2023-05-14T00:41:26.724Z,5.83
2023-05-14T00:43:57.311Z,5.77
2023-05-14T00:46:28.047Z,5.80
2023-05-14T00:48:58.770Z,5.17
2023-05-14T00:51:29.432Z,5.80
2023-05-14T00:53:59.945Z,6.13
2023-05-14T00:56:31.528Z,6.23
2023-05-14T00:59:02.467Z,6.00
2023-05-14T01:01:33.631Z,6.43
2023-05-14T01:04:04.667Z,5.97
2023-05-14T01:09:25.949Z,6.45
2023-05-14T01:12:11.742Z,6.47
2023-05-14T01:15:05.703Z,5.60
2023-05-14T01:17:38.751Z,6.13
2023-05-14T01:20:10.266Z,6.28
2023-05-14T01:22:41.257Z,7.65
2023-05-14T01:25:12.069Z,7.38
2023-05-14T01:28:05.428Z,7.43
2023-05-14T01:31:10.712Z,7.65
2023-05-14T01:33:45.522Z,7.35
2023-05-14T01:36:16.103Z,7.45
2023-05-14T01:38:48.225Z,7.68
2023-05-14T01:41:20.023Z,7.57
2023-05-14T01:43:50.844Z,8.98
2023-05-14T01:46:22.462Z,8.13
2023-05-14T01:48:53.072Z,8.45
2023-05-14T01:51:23.346Z,8.50
2023-05-14T01:53:53.745Z,7.82
2023-05-14T01:56:26.188Z,9.27
2023-05-14T01:58:58.074Z,17.23
2023-05-14T02:01:28.747Z,12.27
2023-05-14T02:03:59.565Z,15.80
2023-05-14T02:06:30.138Z,13.32
2023-05-14T02:09:00.635Z,14.13
2023-05-14T02:11:30.923Z,16.13
2023-05-14T02:14:01.106Z,14.52
2023-05-14T02:16:31.464Z,11.35
2023-05-14T02:19:01.964Z,11.65
2023-05-14T02:21:34.449Z,11.50
2023-05-14T02:24:04.743Z,11.32
2023-05-14T02:26:35.155Z,11.47
2023-05-14T02:29:05.462Z,11.75
2023-05-14T02:31:35.947Z,11.77
2023-05-14T02:34:11.201Z,11.67
2023-05-14T02:36:41.484Z,11.23
2023-05-14T02:39:12.475Z,9.93
2023-05-14T02:41:42.905Z,10.93
2023-05-14T02:44:13.325Z,11.00
2023-05-14T02:46:43.907Z,11.20
2023-05-14T02:49:14.514Z,12.00
2023-05-14T02:51:46.408Z,12.48
2023-05-14T02:54:18.853Z,11.55
2023-05-14T02:56:51.291Z,11.90
2023-05-14T02:59:21.757Z,12.93
2023-05-14T03:01:53.020Z,10.85
2023-05-14T03:06:53.688Z,10.77
2023-05-14T03:09:23.883Z,10.90
2023-05-14T03:12:13.578Z,11.77
2023-05-14T03:14:44.007Z,11.15
2023-05-14T03:17:14.726Z,12.00
2023-05-14T03:19:44.968Z,11.83
2023-05-14T03:22:15.602Z,10.83
2023-05-14T03:24:45.951Z,11.23
2023-05-14T03:27:16.424Z,11.50
2023-05-14T03:29:46.800Z,11.55
2023-05-14T03:32:17.638Z,11.75
2023-05-14T03:34:49.781Z,12.30
2023-05-14T03:37:20.870Z,13.70
2023-05-14T03:42:21.172Z,12.32
2023-05-14T03:44:51.512Z,12.00
2023-05-14T03:47:21.997Z,12.48
2023-05-14T03:49:53.047Z,12.30
2023-05-14T03:52:23.423Z,11.90
2023-05-14T03:54:54.368Z,12.13
2023-05-14T03:57:24.712Z,11.32
2023-05-14T03:59:55.079Z,11.90
2023-05-14T04:02:25.920Z,11.27
2023-05-14T04:04:58.601Z,11.98
2023-05-14T04:07:29.027Z,11.10
2023-05-14T04:09:59.579Z,11.65
2023-05-14T04:12:31.512Z,11.52
2023-05-14T04:15:02.072Z,11.82
2023-05-14T04:17:33.468Z,11.90
2023-05-14T04:20:04.949Z,11.95
2023-05-14T04:22:35.273Z,11.47
2023-05-14T04:25:05.754Z,10.73
2023-05-14T04:27:36.879Z,11.77
2023-05-14T04:30:07.747Z,12.75
2023-05-14T04:32:38.949Z,11.45
2023-05-14T04:37:40.183Z,11.90
2023-05-14T04:40:15.229Z,11.30
2023-05-14T04:42:46.307Z,11.60
2023-05-14T04:45:17.063Z,12.10
2023-05-14T04:47:47.404Z,11.85
2023-05-14T04:50:18.204Z,12.17
2023-05-14T04:52:48.578Z,11.82
2023-05-14T04:55:19.211Z,11.57
2023-05-14T04:57:49.776Z,14.37
2023-05-14T05:00:22.032Z,12.35
2023-05-14T05:02:53.155Z,12.88
2023-05-14T05:05:23.905Z,12.13
2023-05-14T05:07:54.398Z,13.18
2023-05-14T05:10:25.341Z,13.02
2023-05-14T05:12:55.778Z,14.02
2023-05-14T05:15:26.664Z,12.83
2023-05-14T05:17:57.678Z,12.32
2023-05-14T05:20:30.492Z,13.25
2023-05-14T05:23:02.303Z,12.57
2023-05-14T05:25:33.792Z,13.15
2023-05-14T05:28:04.056Z,12.38
2023-05-14T05:30:34.528Z,12.53
2023-05-14T05:33:05.031Z,12.73
2023-05-14T05:35:35.495Z,13.55
2023-05-14T05:38:05.622Z,13.38
2023-05-14T05:40:36.422Z,12.63
2023-05-14T05:43:07.315Z,13.77
2023-05-14T05:45:37.681Z,12.35
2023-05-14T05:48:08.550Z,14.03
2023-05-14T05:50:39.220Z,13.18
2023-05-14T05:53:09.425Z,13.10
2023-05-14T05:55:39.796Z,13.80
2023-05-14T05:58:09.992Z,13.40
2023-05-14T06:00:40.255Z,13.88
2023-05-14T06:03:10.564Z,12.93
2023-05-14T06:05:40.950Z,14.90
2023-05-14T06:08:12.874Z,13.73
2023-05-14T06:10:44.205Z,13.52
2023-05-14T06:13:15.575Z,14.18
2023-05-14T06:15:45.805Z,14.20
2023-05-14T06:18:16.134Z,13.40
2023-05-14T06:20:48.929Z,13.65
2023-05-14T06:23:19.206Z,14.32
2023-05-14T06:25:50.669Z,13.77
2023-05-14T06:28:21.128Z,14.95
2023-05-14T06:30:54.733Z,14.03
2023-05-14T06:33:32.084Z,15.07
2023-05-14T06:36:03.769Z,13.00
2023-05-14T06:38:34.553Z,14.82
2023-05-14T06:41:05.110Z,14.10
2023-05-14T06:43:35.633Z,15.45
2023-05-14T06:46:05.858Z,14.57
2023-05-14T06:48:36.322Z,14.23
2023-05-14T06:51:07.373Z,13.57
2023-05-14T06:53:38.434Z,14.52
2023-05-14T06:56:09.483Z,14.77
2023-05-14T07:01:11.038Z,13.18
2023-05-14T07:06:13.655Z,12.57
2023-05-14T07:08:45.175Z,13.40
2023-05-14T07:11:19.268Z,13.35
2023-05-14T07:13:50.268Z,13.27
2023-05-14T07:16:21.703Z,14.80
2023-05-14T07:18:52.726Z,15.50
2023-05-14T07:21:23.489Z,13.88
2023-05-14T07:23:55.839Z,14.18
2023-05-14T07:26:28.966Z,14.05
2023-05-14T07:29:00.344Z,13.80
2023-05-14T07:34:02.133Z,13.10
2023-05-14T07:36:33.789Z,12.25
2023-05-14T07:39:04.875Z,13.38
2023-05-14T07:41:35.797Z,12.40
2023-05-14T07:44:06.871Z,13.23
2023-05-14T07:46:37.774Z,13.15
2023-05-14T07:49:09.239Z,12.90
2023-05-14T07:51:40.109Z,12.35
2023-05-14T07:56:41.506Z,11.93
2023-05-14T07:59:12.493Z,13.85
2023-05-14T08:01:43.555Z,11.90
2023-05-14T08:04:19.099Z,12.35
2023-05-14T08:06:50.024Z,12.20
2023-05-14T08:11:51.579Z,11.88
2023-05-14T08:19:27.304Z,13.43
2023-05-14T08:21:58.494Z,12.30
2023-05-14T08:27:02.885Z,19.60
2023-05-14T08:29:33.561Z,18.00
2023-05-14T08:32:15.616Z,15.85
2023-05-14T08:34:53.591Z,14.32
2023-05-14T08:39:55.116Z,13.55
2023-05-14T08:42:28.799Z,14.07
2023-05-14T08:45:05.537Z,15.20
2023-05-14T08:47:37.480Z,14.18
2023-05-14T08:50:13.134Z,15.38
2023-05-14T08:52:44.143Z,14.65
2023-05-14T08:55:16.288Z,15.50
2023-05-14T08:57:47.445Z,18.00
2023-05-14T09:00:19.092Z,17.95
2023-05-14T09:02:50.927Z,19.02
2023-05-14T09:05:23.145Z,20.20
2023-05-14T09:07:54.018Z,19.77
2023-05-14T09:10:25.726Z,21.27
2023-05-14T09:12:57.285Z,23.23
2023-05-14T09:15:30.992Z,22.67
2023-05-14T09:18:02.134Z,22.75
2023-05-14T09:23:04.693Z,23.13
2023-05-14T09:25:36.322Z,22.42
2023-05-14T09:28:12.469Z,24.55
2023-05-14T09:30:43.443Z,24.05
2023-05-14T09:35:46.220Z,19.92
2023-05-14T09:38:17.345Z,19.77
2023-05-14T09:43:20.178Z,18.35
2023-05-14T09:48:22.111Z,15.80
2023-05-14T09:50:54.456Z,16.58
2023-05-14T09:53:25.539Z,16.48
2023-05-14T09:55:58.400Z,14.27
2023-05-14T09:58:29.556Z,13.23
2023-05-14T10:06:08.542Z,12.05
2023-05-14T10:08:44.081Z,10.98
2023-05-14T10:11:23.874Z,11.00
2023-05-14T10:14:21.415Z,10.98
2023-05-14T10:16:54.542Z,11.63
2023-05-14T10:19:31.033Z,12.23
2023-05-14T10:22:08.415Z,11.38
2023-05-14T10:24:41.710Z,11.13
2023-05-14T10:27:15.323Z,12.20
2023-05-14T10:29:58.356Z,12.52
2023-05-14T10:32:31.485Z,12.25
2023-05-14T10:35:05.129Z,13.20
2023-05-14T10:37:36.578Z,12.32
2023-05-14T10:40:10.651Z,12.98
2023-05-14T10:42:43.702Z,12.93
2023-05-14T10:45:17.367Z,12.60
2023-05-14T10:47:50.277Z,13.48
2023-05-14T10:50:22.044Z,14.30
2023-05-14T10:52:54.696Z,17.73
2023-05-14T10:55:26.011Z,16.90
2023-05-14T11:00:30.698Z,15.80
2023-05-14T11:03:03.524Z,18.30
2023-05-14T11:05:35.410Z,23.67
2023-05-14T11:08:10.690Z,25.95
2023-05-14T11:10:42.747Z,24.83
2023-05-14T11:13:14.813Z,18.38
2023-05-14T11:15:50.925Z,13.13
2023-05-14T11:18:31.745Z,12.15
2023-05-14T11:21:05.802Z,11.48
2023-05-14T11:23:36.776Z,11.45
2023-05-14T11:28:38.497Z,10.93
2023-05-14T11:33:40.208Z,10.80
2023-05-14T11:36:15.367Z,12.05
2023-05-14T11:38:54.277Z,12.23
2023-05-14T11:41:25.888Z,12.32
2023-05-14T11:43:57.041Z,11.65
2023-05-14T11:46:29.173Z,10.95
2023-05-14T11:49:00.187Z,11.48
2023-05-14T11:51:32.055Z,11.48
2023-05-14T11:54:02.972Z,12.63
2023-05-14T11:56:33.940Z,12.70
2023-05-14T11:59:04.788Z,10.68
2023-05-14T12:01:42.785Z,10.60
2023-05-14T12:04:13.787Z,10.70
2023-05-14T12:09:19.161Z,10.73
2023-05-14T12:11:50.586Z,10.75
2023-05-14T12:14:26.559Z,10.80
2023-05-14T12:16:57.633Z,10.82
2023-05-14T12:19:29.294Z,11.38
2023-05-14T12:22:04.473Z,10.50
2023-05-14T12:24:36.118Z,11.50
2023-05-14T12:27:07.549Z,11.10
2023-05-14T12:29:42.208Z,11.48
2023-05-14T12:32:13.884Z,11.27
2023-05-14T12:34:44.844Z,12.40
2023-05-14T12:37:15.870Z,12.90
2023-05-14T12:39:48.606Z,13.35
2023-05-14T12:42:19.509Z,13.38
2023-05-14T12:44:50.409Z,14.73
2023-05-14T12:47:21.462Z,13.27
2023-05-14T12:49:52.474Z,14.63
2023-05-14T12:52:36.811Z,15.60
2023-05-14T12:55:09.149Z,16.13
2023-05-14T12:57:41.581Z,15.45
2023-05-14T13:00:14.412Z,15.10
2023-05-14T13:02:45.643Z,15.38
2023-05-14T13:05:16.697Z,16.65
2023-05-14T13:07:47.716Z,15.82
2023-05-14T13:10:21.257Z,16.40
2023-05-14T13:12:53.510Z,15.13
2023-05-14T13:15:24.788Z,16.70
2023-05-14T13:17:56.093Z,17.17
2023-05-14T13:20:28.584Z,17.00
2023-05-14T13:23:03.843Z,16.73
2023-05-14T13:25:34.766Z,16.40
2023-05-14T13:28:05.900Z,15.70
2023-05-14T13:30:36.820Z,17.55
2023-05-14T13:33:08.499Z,16.42
2023-05-14T13:35:39.337Z,14.85
2023-05-14T13:38:11.446Z,15.27
2023-05-14T13:40:42.761Z,15.77
2023-05-14T13:43:13.880Z,15.70
2023-05-14T13:45:44.716Z,15.05
2023-05-14T13:48:15.611Z,15.80
2023-05-14T13:50:47.183Z,15.85
2023-05-14T13:53:18.541Z,14.23
2023-05-14T13:58:20.440Z,14.90
2023-05-14T14:00:51.442Z,14.30
2023-05-14T14:03:22.546Z,14.20
2023-05-14T14:05:54.779Z,15.07
2023-05-14T14:08:25.621Z,14.05
2023-05-14T14:10:59.501Z,13.88
2023-05-14T14:13:30.821Z,14.15
2023-05-14T14:16:02.344Z,14.25
2023-05-14T14:18:33.424Z,14.40
2023-05-14T14:21:04.161Z,13.55
2023-05-14T14:23:35.302Z,13.27
2023-05-14T14:26:06.951Z,13.88
2023-05-14T14:28:38.187Z,13.65
2023-05-14T14:31:09.520Z,13.05
2023-05-14T14:33:40.581Z,13.73
2023-05-14T14:36:11.916Z,14.00
2023-05-14T14:38:44.710Z,12.55
2023-05-14T14:41:15.788Z,11.88
2023-05-14T14:43:46.733Z,12.38
2023-05-14T14:46:17.829Z,12.48
2023-05-14T14:48:49.480Z,12.15
2023-05-14T14:51:21.146Z,12.15
2023-05-14T14:53:52.483Z,11.45
2023-05-14T14:56:23.960Z,11.50
2023-05-14T14:58:54.906Z,11.43
2023-05-14T15:01:26.012Z,12.48
2023-05-14T15:03:56.966Z,11.40
2023-05-14T15:06:27.887Z,11.63
2023-05-14T15:08:58.719Z,11.18
2023-05-14T15:11:29.827Z,12.70
2023-05-14T15:14:02.688Z,13.60
2023-05-14T15:16:33.580Z,14.63
2023-05-14T15:19:05.263Z,24.67
2023-05-14T15:21:36.646Z,20.25
2023-05-14T15:24:13.029Z,18.75
2023-05-14T15:26:53.272Z,17.85
2023-05-14T15:29:25.158Z,21.92
2023-05-14T15:31:56.131Z,23.13
2023-05-14T15:34:27.155Z,20.92
2023-05-14T15:36:57.989Z,20.48
2023-05-14T15:39:30.142Z,19.55
2023-05-14T15:42:01.194Z,18.35
2023-05-14T15:44:32.494Z,17.20
2023-05-14T15:49:33.845Z,15.25
2023-05-14T15:52:05.732Z,15.07
2023-05-14T15:54:36.837Z,15.18
2023-05-14T15:59:38.294Z,14.38
2023-05-14T16:02:09.419Z,14.30
2023-05-14T16:07:15.073Z,14.40
2023-05-14T16:09:45.868Z,14.38
2023-05-14T16:12:17.216Z,13.30
2023-05-14T16:17:19.073Z,14.10
2023-05-14T16:19:49.897Z,14.75
2023-05-14T16:22:20.951Z,14.32
2023-05-14T16:24:51.775Z,14.48
2023-05-14T16:27:22.857Z,14.52
2023-05-14T16:29:54.022Z,14.15
2023-05-14T16:34:59.196Z,14.60
2023-05-14T16:37:30.474Z,14.38
2023-05-14T16:40:01.300Z,14.73
2023-05-14T16:45:02.925Z,14.90
2023-05-14T16:47:34.108Z,14.15
2023-05-14T16:50:05.062Z,15.02
2023-05-14T16:52:36.272Z,13.95
2023-05-14T16:55:07.671Z,14.00
2023-05-14T16:57:38.608Z,14.00
2023-05-14T17:00:10.595Z,13.63
2023-05-14T17:02:41.905Z,14.45
2023-05-14T17:07:44.108Z,13.52
2023-05-14T17:10:15.011Z,15.00
2023-05-14T17:12:46.126Z,14.27
2023-05-14T17:15:17.274Z,14.05
2023-05-14T17:17:48.428Z,15.18
2023-05-14T17:20:19.370Z,14.60
2023-05-14T17:22:51.654Z,13.88
2023-05-14T17:25:23.876Z,13.85
2023-05-14T17:27:56.059Z,14.57
2023-05-14T17:30:26.888Z,14.43
2023-05-14T17:32:58.052Z,13.73
2023-05-14T22:52:10.738Z,15.40
2023-05-14T22:54:41.609Z,16.60
2023-05-14T22:57:12.440Z,17.65
2023-05-14T22:59:45.021Z,16.60
2023-05-14T23:02:16.187Z,17.73
2023-05-14T23:07:18.164Z,20.05
2023-05-14T23:09:49.075Z,21.65
2023-05-14T23:12:21.289Z,25.55
2023-05-14T23:14:52.253Z,25.65
2023-05-14T23:17:23.372Z,25.10
2023-05-14T23:22:25.117Z,24.17
2023-05-14T23:30:13.531Z,24.73
2023-05-14T23:32:44.442Z,24.92
2023-05-14T23:35:15.407Z,24.60
2023-05-14T23:37:51.616Z,24.40
2023-05-14T23:40:23.147Z,24.02
2023-05-14T23:42:54.135Z,24.40
2023-05-14T23:45:25.304Z,24.17
2023-05-14T23:47:59.537Z,23.95
2023-05-14T23:50:30.714Z,23.40
2023-05-14T23:55:32.851Z,24.20
2023-05-14T23:58:03.906Z,25.80
